Time;durP1;ratioP1;P1;durP2;ratioP2;P2;SDS_P1;SDS_P2;PMS_P1;PMS_P2;Temp;Humidity;BMP_temperature;BMP_pressure;BME280_temperature;BME280_humidity;BME280_pressure;Samples;Min_cycle;Max_cycle;Signal;HPM_P1;HPM_P2
2023/06/15 00:04:13;;;;;;;7.78;3.47;;;;;;;22.45;90.26;99514.38;10460296;28;19920;-68
2023/06/15 00:09:14;;;;;;;9.88;4.22;;;;;;;23.11;93.39;99645.63;10460206;28;20381;-69
2023/06/15 00:14:15;;;;;;;9.40;4.38;;;;;;;22.75;95.66;99605.69;10459959;28;20111;-69
2023/06/15 00:19:16;;;;;;;9.43;4.00;;;;;;;22.66;96.85;99628.94;10454663;28;20045;-68
2023/06/15 00:24:17;;;;;;;15.50;4.80;;;;;;;22.68;98.08;99632.22;10453880;28;20041;-67
2023/06/15 00:29:18;;;;;;;14.88;4.75;;;;;;;22.71;100.00;99641.69;10453179;28;20044;-67
2023/06/15 00:34:18;;;;;;;9.93;4.47;;;;;;;22.72;100.00;99649.53;10456297;28;20064;-66
2023/06/15 00:39:19;;;;;;;10.10;4.60;;;;;;;22.26;100.00;99584.41;10458369;28;20037;-66
2023/06/15 00:44:20;;;;;;;10.95;4.60;;;;;;;22.51;100.00;99628.88;10458019;28;20037;-66
2023/06/15 00:49:21;;;;;;;12.95;5.30;;;;;;;22.49;100.00;99648.06;10458555;28;20131;-66
2023/06/15 00:54:23;;;;;;;11.75;5.30;;;;;;;22.33;100.00;99638.28;10457881;28;20114;-66
2023/06/15 00:59:24;;;;;;;11.95;4.53;;;;;;;22.49;100.00;99666.22;10458850;28;20044;-67
2023/06/15 01:04:26;;;;;;;14.18;4.70;;;;;;;22.37;100.00;99661.00;10458203;28;20053;-66
2023/06/15 01:09:28;;;;;;;9.93;4.95;;;;;;;22.39;100.00;99663.47;10457913;28;20118;-66
2023/06/15 01:14:29;;;;;;;16.10;4.60;;;;;;;22.31;100.00;99673.69;10457322;28;20067;-66
2023/06/15 01:20:08;;;;;;;11.52;4.10;;;;;;;22.27;100.00;99672.59;10456877;28;20181;-66
2023/06/15 01:25:26;;;;;;;11.57;3.80;;;;;;;22.13;100.00;99655.16;10456631;28;20036;-66
2023/06/15 01:30:29;;;;;;;8.05;4.65;;;;;;;22.14;100.00;99666.78;10456999;28;20072;-66
2023/06/15 01:35:30;;;;;;;25.45;5.18;;;;;;;21.77;100.00;99611.66;10456608;28;20435;-66
2023/06/15 01:40:33;;;;;;;8.38;4.50;;;;;;;22.10;100.00;99682.72;10456555;28;20041;-66
2023/06/15 01:45:36;;;;;;;10.93;4.30;;;;;;;22.13;100.00;99687.63;10457157;28;20098;-65
2023/06/15 01:50:38;;;;;;;16.70;5.10;;;;;;;21.95;100.00;99663.69;10455554;28;20037;-65
2023/06/15 01:55:38;;;;;;;10.88;4.32;;;;;;;21.98;100.00;99679.41;10455957;28;20064;-66
2023/06/15 02:00:40;;;;;;;10.10;4.43;;;;;;;22.02;100.00;99683.22;10454615;28;20048;-66
2023/06/15 02:05:41;;;;;;;8.10;4.38;;;;;;;21.91;100.00;99654.47;10373425;28;20046;-66
2023/06/15 02:10:42;;;;;;;9.20;3.75;;;;;;;22.02;100.00;99681.34;10383455;28;20079;-66
2023/06/15 02:15:42;;;;;;;8.32;4.32;;;;;;;22.06;100.00;99681.63;10455144;28;20123;-66
2023/06/15 02:20:44;;;;;;;12.88;4.32;;;;;;;21.84;100.00;99643.88;10454770;28;20531;-66
2023/06/15 02:25:45;;;;;;;15.55;4.43;;;;;;;21.97;100.00;99670.47;10455450;28;20492;-66
2023/06/15 02:30:46;;;;;;;8.77;4.68;;;;;;;21.65;100.00;99619.94;10455399;28;20041;-65
2023/06/15 02:35:46;;;;;;;9.95;3.95;;;;;;;21.75;100.00;99637.34;10453422;28;20497;-66
2023/06/15 02:40:47;;;;;;;13.30;4.63;;;;;;;22.07;100.00;99696.78;10454606;28;20049;-66
2023/06/15 02:45:48;;;;;;;11.18;4.55;;;;;;;22.11;100.00;99709.53;10453750;28;20040;-66
2023/06/15 02:50:49;;;;;;;9.90;3.80;;;;;;;21.72;100.00;99625.16;10454068;28;20123;-66
2023/06/15 02:55:51;;;;;;;8.40;4.32;;;;;;;21.94;100.00;99660.19;10454206;28;20115;-66
2023/06/15 03:00:53;;;;;;;8.15;4.65;;;;;;;22.36;100.00;99710.81;10457822;28;20048;-66
2023/06/15 03:05:54;;;;;;;12.35;4.60;;;;;;;22.40;100.00;99711.09;10462702;28;20106;-65
2023/06/15 03:10:55;;;;;;;13.50;4.57;;;;;;;22.43;100.00;99714.09;10428160;28;20044;-66
2023/06/15 03:15:56;;;;;;;8.88;4.40;;;;;;;22.28;100.00;99695.03;10420362;28;20053;-66
2023/06/15 03:20:57;;;;;;;13.05;4.45;;;;;;;22.42;100.00;99728.69;10419208;28;20053;-66
2023/06/15 03:25:58;;;;;;;8.43;4.43;;;;;;;22.40;100.00;99724.63;10420493;28;20049;-66
2023/06/15 03:31:04;;;;;;;11.60;4.30;;;;;;;22.53;100.00;99732.28;10419993;28;20483;-66
2023/06/15 03:36:05;;;;;;;10.00;4.63;;;;;;;22.59;100.00;99735.84;10419290;28;20041;-66
2023/06/15 03:41:06;;;;;;;7.45;4.50;;;;;;;22.53;100.00;99716.88;10421689;28;20396;-67
2023/06/15 03:46:07;;;;;;;7.05;3.88;;;;;;;22.55;100.00;99722.84;10440444;28;20128;-67
2023/06/15 03:51:08;;;;;;;7.05;4.07;;;;;;;22.67;100.00;99708.25;10459530;28;20033;-67
2023/06/15 03:56:09;;;;;;;8.65;4.72;;;;;;;22.81;100.00;99722.97;10461508;28;20439;-67
2023/06/15 04:01:12;;;;;;;10.80;4.93;;;;;;;22.45;100.00;99648.88;10458598;28;20045;-68
2023/06/15 04:06:15;;;;;;;10.38;3.88;;;;;;;22.83;100.00;99709.97;10447019;28;20041;-67
2023/06/15 04:11:15;;;;;;;12.23;4.30;;;;;;;;;;10445905;28;20080;-67
2023/06/15 04:16:16;;;;;;;10.57;4.70;;;;;;;22.98;100.00;99745.28;10460509;28;20154;-68
2023/06/15 04:21:17;;;;;;;6.72;3.55;;;;;;;22.47;100.00;99652.97;10459757;28;20041;-67
2023/06/15 04:26:18;;;;;;;6.70;4.03;;;;;;;22.91;100.00;99722.19;10459318;28;20047;-67
2023/06/15 04:31:21;;;;;;;10.90;4.30;;;;;;;23.05;100.00;99720.66;10459361;28;20041;-67
2023/06/15 04:36:22;;;;;;;6.90;3.83;;;;;;;22.91;100.00;99695.91;10444738;28;20041;-68
2023/06/15 04:41:23;;;;;;;8.95;3.88;;;;;;;22.93;100.00;99674.00;10446327;28;20045;-68
2023/06/15 04:46:24;;;;;;;9.40;4.15;;;;;;;23.37;100.00;99730.50;10457951;28;20416;-68
2023/06/15 04:51:25;;;;;;;15.45;4.38;;;;;;;23.08;100.00;99671.34;10457394;28;20044;-68
2023/06/15 04:56:26;;;;;;;8.48;4.32;;;;;;;23.53;100.00;99740.28;10456110;28;20068;-68
2023/06/15 05:01:27;;;;;;;13.20;4.72;;;;;;;23.45;100.00;99730.81;10457908;28;20033;-68
2023/06/15 05:06:28;;;;;;;6.07;4.00;;;;;;;23.13;100.00;99663.25;10458235;28;20048;-68
2023/06/15 05:11:28;;;;;;;9.57;4.68;;;;;;;23.73;100.00;99731.41;10457277;28;20123;-68
2023/06/15 05:16:30;;;;;;;11.32;4.38;;;;;;;23.49;100.00;99668.72;10457011;28;20047;-68
2023/06/15 05:21:31;;;;;;;8.68;4.53;;;;;;;24.09;100.00;99743.09;10458065;28;20041;-68
2023/06/15 05:26:31;;;;;;;11.82;4.60;;;;;;;24.39;100.00;99744.13;10442428;28;20073;-68
2023/06/15 05:31:33;;;;;;;12.98;4.70;;;;;;;24.58;100.00;99730.81;10456943;28;20563;-68
2023/06/15 05:36:34;;;;;;;12.57;5.20;;;;;;;25.06;100.00;99732.00;10456198;28;20068;-68
2023/06/15 05:41:35;;;;;;;14.32;4.80;;;;;;;25.45;100.00;99731.28;10456676;28;20045;-69
2023/06/15 05:46:36;;;;;;;9.57;4.50;;;;;;;25.65;97.84;99724.91;10456669;28;20041;-68
2023/06/15 05:51:36;;;;;;;8.90;4.97;;;;;;;25.89;96.31;99730.47;10455591;28;20095;-68
2023/06/15 05:56:37;;;;;;;7.43;4.07;;;;;;;25.89;94.83;99676.03;10450431;28;20067;-69
2023/06/15 06:01:38;;;;;;;10.70;4.18;;;;;;;26.33;93.09;99707.75;10415291;28;20067;-68
2023/06/15 06:06:39;;;;;;;30.27;5.93;;;;;;;26.39;94.42;99733.03;10455314;28;20048;-67
2023/06/15 06:11:40;;;;;;;15.30;6.55;;;;;;;25.41;98.74;99726.69;10445181;28;20045;-71
2023/06/15 06:16:40;;;;;;;11.73;5.30;;;;;;;24.67;100.00;99756.31;10413921;28;20049;-71
2023/06/15 06:21:41;;;;;;;23.27;6.95;;;;;;;23.95;100.00;99801.69;10408251;28;20045;-71
2023/06/15 06:26:42;;;;;;;17.75;4.20;;;;;;;22.69;100.00;99811.72;10405769;28;20135;-72
2023/06/15 06:31:43;;;;;;;22.50;4.93;;;;;;;21.41;100.00;99789.69;10408421;28;20037;-70
2023/06/15 07:47:04;;;;;;;3.75;1.77;;;;;;;20.13;100.00;99733.09;10422716;28;20421;-70
2023/06/15 07:52:05;;;;;;;8.65;2.60;;;;;;;20.54;100.00;99782.31;10425382;28;20049;-70
2023/06/15 07:57:06;;;;;;;5.75;2.78;;;;;;;20.60;100.00;99794.00;10416675;28;20128;-69
2023/06/15 08:02:07;;;;;;;8.65;2.75;;;;;;;20.54;100.00;99782.31;10418954;28;20501;-70
2023/06/15 08:07:08;;;;;;;8.48;2.97;;;;;;;20.56;100.00;99796.38;10411818;28;20489;-70
2023/06/15 08:12:10;;;;;;;4.82;2.70;;;;;;;20.39;100.00;99753.19;10413845;28;20058;-69
2023/06/15 08:17:10;;;;;;;5.25;2.72;;;;;;;20.73;100.00;99807.97;10418290;28;20579;-69
2023/06/15 08:22:11;;;;;;;18.55;3.15;;;;;;;20.49;100.00;99742.56;10419038;28;20033;-70
2023/06/15 08:27:13;;;;;;;7.50;2.33;;;;;;;20.53;100.00;99759.09;10418574;28;20038;-69
2023/06/15 08:32:14;;;;;;;6.95;2.90;;;;;;;20.92;100.00;99819.31;10424463;28;20044;-69
2023/06/15 08:37:15;;;;;;;7.70;3.08;;;;;;;21.02;100.00;99815.13;10496087;27;20064;-68
2023/06/15 08:42:17;;;;;;;4.70;2.88;;;;;;;21.12;100.00;99804.44;10483625;27;20043;-73
2023/06/15 08:47:18;;;;;;;6.75;2.75;;;;;;;21.16;100.00;99809.09;10508775;27;20126;-71
2023/06/15 08:52:20;;;;;;;7.22;2.45;;;;;;;21.02;100.00;99802.41;10522295;27;20042;-68
2023/06/15 08:57:21;;;;;;;5.18;2.10;;;;;;;20.83;100.00;99763.28;10512073;27;20043;-70
2023/06/15 09:02:24;;;;;;;6.10;2.20;;;;;;;21.02;100.00;99798.91;10470998;27;20042;-69
2023/06/15 09:07:25;;;;;;;3.45;1.92;;;;;;;21.15;100.00;99799.38;10511092;27;20048;-69
2023/06/15 09:12:26;;;;;;;3.05;1.80;;;;;;;21.36;100.00;99789.66;10513304;27;20048;-69
2023/06/15 09:17:28;;;;;;;4.63;2.10;;;;;;;21.32;100.00;99760.66;10511528;27;20044;-69
2023/06/15 09:22:29;;;;;;;8.35;2.60;;;;;;;20.98;100.00;99664.41;10516051;27;20056;-70
2023/06/15 09:27:30;;;;;;;6.53;2.47;;;;;;;21.52;100.00;99698.75;10489133;27;20041;-70
2023/06/15 09:32:31;;;;;;;6.55;2.15;;;;;;;22.11;100.00;99743.88;10503466;27;20039;-67
2023/06/15 09:37:33;;;;;;;3.95;2.13;;;;;;;22.32;100.00;99734.06;10516700;27;20034;-68
2023/06/15 09:42:35;;;;;;;6.10;1.77;;;;;;;21.66;100.00;99615.38;10514199;27;20062;-69
2023/06/15 09:47:36;;;;;;;4.47;1.98;;;;;;;22.59;100.00;99715.00;10466242;27;20040;-69
2023/06/15 09:52:43;;;;;;;3.45;1.60;;;;;;;22.57;100.00;99690.09;10506757;27;20078;-69
2023/06/15 09:57:45;;;;;;;2.33;1.50;;;;;;;22.92;100.00;99718.41;10490856;27;20072;-70
2023/06/15 10:02:47;;;;;;;13.13;2.10;;;;;;;22.72;100.00;99657.66;10513850;27;20120;-70
2023/06/15 10:07:49;;;;;;;4.38;1.63;;;;;;;23.34;100.00;99703.94;10510051;27;20064;-69
2023/06/15 10:12:53;;;;;;;5.07;1.52;;;;;;;23.47;100.00;99689.84;10507833;27;20042;-69
2023/06/15 10:17:56;;;;;;;2.53;1.52;;;;;;;23.66;100.00;99692.84;10510273;27;20045;-71
2023/06/15 10:23:02;;;;;;;3.87;1.70;;;;;;;23.57;100.00;99629.41;10496200;27;20033;-71
2023/06/15 10:28:09;;;;;;;3.33;1.55;;;;;;;23.98;100.00;99681.75;10514099;27;20265;-70
2023/06/15 10:33:33;;;;;;;3.47;1.48;;;;;;;24.30;100.00;99661.66;10467761;27;20041;-71
2023/06/15 10:38:40;;;;;;;3.03;1.60;;;;;;;24.34;100.00;99643.72;10466656;27;20046;-71
2023/06/15 10:43:59;;;;;;;4.30;1.90;;;;;;;23.97;100.00;99558.06;10412982;27;20061;-70
2023/06/15 10:49:07;;;;;;;10.35;2.15;;;;;;;24.60;100.00;99629.00;10379886;28;20057;-71
2023/06/15 10:54:25;;;;;;;5.75;2.17;;;;;;;24.83;100.00;99632.97;10367339;28;20517;-71
2023/06/15 10:59:48;;;;;;;4.55;1.60;;;;;;;24.92;100.00;99640.50;10367589;28;20070;-70
2023/06/15 11:04:52;;;;;;;2.95;1.80;;;;;;;25.00;100.00;99643.44;10367195;28;20418;-70
2023/06/15 11:10:02;;;;;;;4.35;2.10;;;;;;;24.60;98.46;99563.81;10367411;28;20054;-70
2023/06/15 11:15:05;;;;;;;7.45;2.17;;;;;;;25.15;99.61;99636.34;10366450;28;20041;-70
2023/06/15 11:20:08;;;;;;;;;;;;;;;25.58;97.67;99631.16;10368081;28;20041;-70
2023/06/15 11:25:11;;;;;;;7.82;2.38;;;;;;;25.06;98.43;99543.69;10367007;28;19921;-69
2023/06/15 11:30:12;;;;;;;5.05;2.60;;;;;;;24.82;96.13;99487.34;10366604;28;20534;-69
2023/06/15 11:35:13;;;;;;;10.30;3.17;;;;;;;25.20;94.58;99519.44;10366192;28;20042;-69
2023/06/15 11:40:17;;;;;;;4.18;2.47;;;;;;;25.87;92.67;99607.47;10365732;28;20504;-70
2023/06/15 11:45:21;;;;;;;8.93;2.70;;;;;;;25.90;92.34;99574.25;10366641;28;20062;-69
2023/06/15 11:50:25;;;;;;;6.95;2.30;;;;;;;26.21;90.13;99562.25;10365455;28;20042;-69
2023/06/15 11:55:25;;;;;;;8.52;2.63;;;;;;;26.64;89.90;99585.66;10365879;28;20136;-70
2023/06/15 12:00:27;;;;;;;3.83;2.08;;;;;;;26.99;87.42;99589.00;10377816;28;20179;-71
2023/06/15 12:05:28;;;;;;;2.92;1.90;;;;;;;27.17;83.20;99587.41;10465831;28;20515;-70
2023/06/15 12:10:29;;;;;;;6.70;1.75;;;;;;;27.36;81.84;99581.91;10455596;27;20045;-69
2023/06/15 12:15:30;;;;;;;4.57;2.10;;;;;;;27.70;80.68;99567.97;10400877;28;20042;-69
2023/06/15 12:20:36;;;;;;;3.33;1.60;;;;;;;27.88;75.66;99573.66;10386809;28;20511;-70
2023/06/15 12:25:45;;;;;;;3.65;2.10;;;;;;;28.09;73.24;99555.78;10397392;28;20049;-71
2023/06/15 12:30:47;;;;;;;8.02;6.18;;;;;;;28.28;75.07;99539.28;10378630;28;20042;-70
2023/06/15 12:35:50;;;;;;;6.00;2.43;;;;;;;28.16;71.75;99479.72;10386783;28;20196;-71
2023/06/15 12:40:56;;;;;;;4.20;2.28;;;;;;;28.52;71.86;99519.16;10390006;28;20186;-69
2023/06/15 12:45:56;;;;;;;3.75;2.10;;;;;;;28.47;71.05;99470.88;10387191;28;20062;-69
2023/06/15 12:50:59;;;;;;;3.30;2.03;;;;;;;29.12;68.77;99538.78;10388742;28;20157;-69
2023/06/15 12:56:00;;;;;;;3.57;1.80;;;;;;;29.47;68.02;99552.72;10382105;28;20386;-69
2023/06/15 13:01:00;;;;;;;3.65;1.95;;;;;;;29.13;66.67;99510.31;10370359;28;20416;-68
2023/06/15 13:06:01;;;;;;;15.25;7.47;;;;;;;29.21;64.26;99497.84;10370608;28;20045;-68
2023/06/15 13:11:03;;;;;;;4.70;2.65;;;;;;;29.87;63.72;99582.88;10369956;28;20053;-67
2023/06/15 13:16:04;;;;;;;4.03;1.98;;;;;;;29.40;63.18;99491.34;10389706;28;20046;-68
2023/06/15 13:21:04;;;;;;;2.75;1.80;;;;;;;29.92;60.92;99557.31;10379566;28;20050;-69
2023/06/15 13:26:05;;;;;;;4.63;1.90;;;;;;;29.51;59.85;99536.47;10371239;28;20064;-69
2023/06/15 13:31:06;;;;;;;3.25;1.73;;;;;;;29.59;60.37;99546.66;10400603;28;20140;-68
2023/06/15 13:36:07;;;;;;;5.93;3.83;;;;;;;29.69;61.45;99540.94;10409847;28;20038;-68
2023/06/15 13:41:08;;;;;;;5.95;2.50;;;;;;;29.75;60.84;99533.41;10410381;28;20409;-68
2023/06/15 13:46:09;;;;;;;5.07;3.10;;;;;;;29.53;60.84;99510.41;10397706;28;20072;-69
2023/06/15 13:51:10;;;;;;;5.53;2.40;;;;;;;29.37;61.60;99495.50;10395137;28;20492;-69
2023/06/15 13:56:11;;;;;;;4.60;2.10;;;;;;;29.40;62.25;99527.69;10406905;28;20045;-69
2023/06/15 14:01:12;;;;;;;4.28;2.28;;;;;;;28.86;62.69;99463.94;10410094;28;20136;-70
2023/06/15 14:06:13;;;;;;;3.72;2.38;;;;;;;29.03;62.42;99527.00;10409801;28;20492;-71
2023/06/15 14:11:15;;;;;;;4.68;2.00;;;;;;;28.60;62.83;99554.75;10409971;28;20042;-69
2023/06/15 14:16:19;;;;;;;4.70;2.00;;;;;;;28.08;64.32;99564.28;10406403;28;20041;-70
2023/06/15 14:21:20;;;;;;;3.30;2.22;;;;;;;27.61;65.11;99550.66;10400516;28;20052;-70
2023/06/15 14:26:21;;;;;;;6.90;2.67;;;;;;;27.41;67.06;99573.66;10409227;28;20385;-68
2023/06/15 14:31:22;;;;;;;8.73;2.65;;;;;;;26.82;67.71;99499.59;10384713;28;20041;-70
2023/06/15 14:36:23;;;;;;;7.47;3.10;;;;;;;27.13;69.49;99580.88;10399046;28;20044;-71
2023/06/15 14:41:24;;;;;;;4.32;2.55;;;;;;;26.69;70.63;99524.84;10395793;28;20050;-70
2023/06/15 14:46:24;;;;;;;5.22;2.40;;;;;;;26.76;71.62;99573.53;10376298;28;20420;-71
2023/06/15 14:51:25;;;;;;;3.80;2.45;;;;;;;26.56;72.90;99594.47;10404710;28;20041;-70
2023/06/15 14:56:29;;;;;;;5.53;2.45;;;;;;;26.25;72.37;99606.84;10407983;28;20068;-70
2023/06/15 15:01:30;;;;;;;4.60;2.03;;;;;;;26.02;72.14;99641.09;10382205;28;20253;-71
2023/06/15 15:06:31;;;;;;;4.78;2.00;;;;;;;25.73;71.04;99658.22;10403041;28;20158;-71
2023/06/15 15:11:32;;;;;;;5.57;2.00;;;;;;;25.44;70.38;99666.31;10409280;28;20033;-71
2023/06/15 15:16:33;;;;;;;4.97;1.75;;;;;;;25.19;71.25;99662.69;10408235;28;20048;-71
2023/06/15 15:21:34;;;;;;;4.22;1.95;;;;;;;24.89;70.59;99660.91;10407038;28;20412;-71
2023/06/15 15:26:35;;;;;;;3.38;1.70;;;;;;;24.85;70.73;99662.56;10407819;28;20144;-70
2023/06/15 15:31:35;;;;;;;4.28;1.92;;;;;;;24.50;70.84;99629.03;10408342;28;20038;-69
2023/06/15 15:36:36;;;;;;;5.72;2.60;;;;;;;24.67;71.72;99655.03;10392214;28;20489;-72
2023/06/15 15:41:37;;;;;;;3.97;2.10;;;;;;;24.49;72.71;99640.16;10403611;28;20034;-71
2023/06/15 15:46:38;;;;;;;5.45;2.15;;;;;;;24.50;73.46;99663.50;10406715;28;20106;-71
2023/06/15 15:51:39;;;;;;;16.73;3.83;;;;;;;24.21;74.70;99636.16;10407620;28;20053;-72
2023/06/15 15:56:40;;;;;;;5.05;2.55;;;;;;;23.76;74.12;99573.59;10378108;28;20042;-70
2023/06/15 16:01:41;;;;;;;12.20;5.40;;;;;;;24.13;75.48;99649.19;10383057;28;20050;-68
2023/06/15 16:06:42;;;;;;;16.13;8.55;;;;;;;24.06;76.06;99647.84;10370430;28;20052;-68
2023/06/15 16:11:43;;;;;;;39.10;11.30;;;;;;;23.46;76.59;99575.19;10370481;28;20129;-68
2023/06/15 16:16:43;;;;;;;11.15;4.03;;;;;;;23.63;76.50;99620.19;10371134;28;20125;-68
2023/06/15 16:21:44;;;;;;;4.35;1.90;;;;;;;23.78;77.56;99662.78;10369916;28;20046;-68
2023/06/15 16:26:45;;;;;;;6.18;2.25;;;;;;;23.42;78.58;99646.47;10369987;28;20046;-67
2023/06/15 16:31:46;;;;;;;9.73;2.17;;;;;;;23.00;80.06;99612.28;10370837;28;20049;-70
2023/06/15 16:36:47;;;;;;;7.57;2.05;;;;;;;23.15;81.33;99680.03;10371451;28;20086;-68
2023/06/15 16:41:48;;;;;;;9.23;2.53;;;;;;;22.62;82.70;99635.97;10371057;28;20033;-68
2023/06/15 16:46:49;;;;;;;6.63;2.33;;;;;;;22.89;83.68;99702.69;10367492;28;20066;-68
2023/06/15 16:51:50;;;;;;;9.15;2.22;;;;;;;22.65;85.24;99713.94;10369370;28;20416;-70
2023/06/15 16:56:51;;;;;;;7.25;2.40;;;;;;;22.24;85.93;99669.59;10371154;28;20045;-71
2023/06/15 17:01:51;;;;;;;44.45;28.70;;;;;;;22.54;87.60;99715.78;10371684;28;20050;-71
2023/06/15 17:06:55;;;;;;;8.60;5.60;;;;;;;22.13;87.64;99662.47;10369907;28;20042;-71
2023/06/15 17:11:57;;;;;;;5.50;2.70;;;;;;;22.10;88.34;99694.34;10370217;28;20501;-70
2023/06/15 17:16:58;;;;;;;4.95;2.42;;;;;;;22.30;88.70;99750.53;10370210;28;20076;-71
2023/06/15 17:21:59;;;;;;;4.95;2.25;;;;;;;21.96;90.19;99703.19;10370783;28;20091;-71
2023/06/15 17:27:00;;;;;;;8.80;6.05;;;;;;;22.36;91.86;99770.34;10370417;28;20116;-71
2023/06/15 17:32:00;;;;;;;8.25;5.38;;;;;;;22.29;92.23;99781.38;10370036;28;20092;-71
2023/06/15 17:37:02;;;;;;;6.25;3.50;;;;;;;22.11;93.00;99779.06;10370281;28;20038;-71
2023/06/15 17:42:03;;;;;;;7.00;2.90;;;;;;;22.10;94.50;99797.16;10370026;28;20046;-70
2023/06/15 17:47:04;;;;;;;4.53;2.40;;;;;;;21.97;95.35;99799.47;10368937;28;20053;-70
2023/06/15 17:52:06;;;;;;;5.53;2.42;;;;;;;22.10;94.94;99809.84;10369984;28;20393;-70
2023/06/15 17:57:07;;;;;;;4.68;2.08;;;;;;;22.14;93.81;99808.28;10368912;28;20081;-71
2023/06/15 18:02:08;;;;;;;4.50;3.17;;;;;;;22.05;93.50;99801.72;10369082;28;20068;-71
2023/06/15 18:07:09;;;;;;;4.53;2.40;;;;;;;22.09;93.89;99809.03;10369100;28;20374;-70
2023/06/15 18:12:11;;;;;;;5.70;2.47;;;;;;;21.95;93.91;99783.50;10369366;28;20042;-71
2023/06/15 18:17:12;;;;;;;3.25;1.75;;;;;;;22.08;93.14;99801.19;10367825;28;20046;-71
2023/06/15 18:22:12;;;;;;;4.43;2.00;;;;;;;21.66;92.92;99734.31;10366600;28;20082;-71
2023/06/15 18:27:13;;;;;;;5.68;2.40;;;;;;;22.08;93.13;99809.31;10368433;28;20038;-71
2023/06/15 18:32:14;;;;;;;5.97;2.90;;;;;;;22.04;93.73;99803.59;10367690;28;20044;-71
2023/06/15 18:37:16;;;;;;;4.57;2.42;;;;;;;21.96;94.17;99814.88;10367967;28;20128;-70
2023/06/15 18:42:36;;;;;;;5.75;2.38;;;;;;;21.80;95.02;99813.91;10367751;28;20413;-71
2023/06/15 18:47:37;;;;;;;3.28;2.40;;;;;;;21.67;96.13;99798.09;10395088;28;20073;-70
2023/06/15 18:52:38;;;;;;;8.52;2.80;;;;;;;21.24;96.44;99724.13;10408564;28;20052;-70
2023/06/15 18:57:39;;;;;;;6.15;2.67;;;;;;;21.64;97.01;99787.78;10407683;28;20042;-70
2023/06/15 19:02:40;;;;;;;4.40;2.30;;;;;;;21.58;97.36;99778.00;10407941;28;20052;-70
2023/06/15 19:07:41;;;;;;;6.95;2.42;;;;;;;21.49;97.65;99766.00;10373683;28;20546;-70
2023/06/15 19:12:42;;;;;;;4.15;2.60;;;;;;;20.75;97.46;99653.88;10399335;28;20041;-71
2023/06/15 19:17:43;;;;;;;4.07;2.38;;;;;;;21.07;97.27;99715.28;10407900;28;20514;-70
2023/06/15 19:22:44;;;;;;;6.10;2.33;;;;;;;21.52;96.85;99782.53;10406960;28;20073;-71
2023/06/15 19:27:45;;;;;;;5.07;2.08;;;;;;;21.35;96.73;99760.97;10407218;28;20060;-71
2023/06/15 19:32:45;;;;;;;3.42;1.92;;;;;;;21.45;96.83;99783.78;10407434;28;20037;-71
2023/06/15 19:37:46;;;;;;;2.28;1.50;;;;;;;21.45;96.28;99786.47;10407474;28;20041;-71
2023/06/15 19:42:47;;;;;;;5.07;2.05;;;;;;;21.44;95.96;99769.47;10390674;28;20058;-70
2023/06/15 19:47:48;;;;;;;3.72;1.92;;;;;;;20.96;95.87;99684.63;10366284;28;20188;-71
2023/06/15 19:52:49;;;;;;;5.57;2.05;;;;;;;21.14;95.91;99724.78;10365603;28;20085;-70
2023/06/15 19:57:50;;;;;;;3.33;1.80;;;;;;;21.31;96.32;99759.03;10365230;28;20397;-70
2023/06/15 20:02:51;;;;;;;3.67;1.85;;;;;;;21.32;95.89;99750.66;10367751;28;20041;-70
2023/06/15 20:07:52;;;;;;;4.55;1.85;;;;;;;21.31;95.79;99748.22;10386281;28;20385;-70
2023/06/15 20:12:52;;;;;;;3.22;2.35;;;;;;;21.12;95.93;99707.19;10368594;28;20029;-71
2023/06/15 20:17:53;;;;;;;3.92;1.98;;;;;;;20.81;96.08;99660.97;10405572;28;20386;-70
2023/06/15 20:22:54;;;;;;;6.18;2.15;;;;;;;21.22;96.38;99739.75;10393529;28;20042;-70
2023/06/15 20:27:55;;;;;;;4.28;1.85;;;;;;;20.80;96.53;99672.03;10369547;28;20041;-70
2023/06/15 20:32:56;;;;;;;4.57;2.10;;;;;;;21.07;96.97;99723.38;10378769;28;20049;-70
2023/06/15 20:37:56;;;;;;;3.20;2.03;;;;;;;21.07;97.14;99726.06;10364841;28;20038;-71
2023/06/15 20:43:00;;;;;;;4.32;1.92;;;;;;;21.09;97.35;99751.75;10369830;28;20057;-70
2023/06/15 20:48:01;;;;;;;;;;;;;;;21.17;97.72;99745.09;10402280;28;20457;-71
2023/06/15 20:53:04;;;;;;;;;;;;;;;21.12;97.04;99745.00;10410849;28;19973;-70
2023/06/15 20:58:05;;;;;;;;;;;;;;;21.08;96.42;99741.19;10411967;28;19924;-71
2023/06/15 21:03:06;;;;;;;;;;;;;;;21.03;96.52;99744.66;10411250;28;19924;-71
2023/06/15 21:08:07;;;;;;;;;;;;;;;21.03;96.76;99744.66;10412160;28;19917;-71
2023/06/15 21:13:08;;;;;;;;;;;;;;;21.07;96.85;99753.88;10411864;28;20423;-71
2023/06/15 21:18:08;;;;;;;;;;;;;;;21.06;96.47;99751.41;10411360;28;20349;-71
2023/06/15 21:23:09;;;;;;;;;;;;;;;21.02;96.29;99742.19;10411868;28;19917;-71
2023/06/15 21:28:10;;;;;;;;;;;;;;;21.03;96.25;99738.44;10412234;28;19924;-71
2023/06/15 21:33:10;;;;;;;;;;;;;;;21.00;96.37;99737.06;10411445;28;19971;-71
2023/06/15 21:38:13;;;;;;;;;;;;;;;21.04;96.42;99722.00;10411453;28;19939;-70
2023/06/15 21:43:13;;;;;;;;;;;;;;;21.08;96.30;99709.59;10410714;28;19921;-72
2023/06/15 21:48:14;;;;;;;;;;;;;;;21.07;95.89;99707.16;10410930;28;20061;-71
2023/06/15 21:53:15;;;;;;;;;;;;;;;21.02;95.62;99713.31;10410788;28;19917;-71
2023/06/15 21:58:16;;;;;;;;;;;;;;;20.99;95.66;99724.63;10410210;28;20023;-71
2023/06/15 22:03:16;;;;;;;;;;;;;;;20.94;95.75;99720.00;10410622;28;20478;-71
2023/06/15 22:08:17;;;;;;;;;;;;;;;20.88;95.88;99717.44;10411426;28;19917;-71
2023/06/15 22:13:18;;;;;;;;;;;;;;;20.82;96.01;99711.19;10409932;28;19913;-71
2023/06/15 22:18:19;;;;;;;;;;;;;;;20.71;96.18;99712.94;10409534;28;20056;-71
2023/06/15 22:23:20;;;;;;;;;;;;;;;20.66;96.22;99720.16;10409562;28;19917;-72
2023/06/15 22:28:20;;;;;;;;;;;;;;;20.62;96.58;99708.22;10409697;28;19917;-71
2023/06/15 22:33:22;;;;;;;;;;;;;;;20.56;96.36;99699.25;10410103;28;19913;-71
2023/06/15 22:38:23;;;;;;;;;;;;;;;20.54;96.73;99704.06;10409475;28;20291;-71
2023/06/15 22:43:27;;;;;;;;;;;;;;;20.50;96.76;99708.31;10409073;28;19928;-71
2023/06/15 22:48:29;;;;;;;;;;;;;;;20.48;97.10;99696.94;10409427;28;19921;-71
2023/06/15 22:53:29;;;;;;;;;;;;;;;20.47;97.12;99693.44;10408920;28;20036;-71
2023/06/15 22:58:31;;;;;;;;;;;;;;;20.46;97.35;99689.09;10394444;28;20417;-71
2023/06/15 23:03:31;;;;;;;;;;;;;;;20.46;97.56;99686.41;10402487;28;20019;-71
2023/06/15 23:08:32;;;;;;;;;;;;;;;20.44;97.54;99687.72;10408547;28;20012;-72
2023/06/15 23:13:36;;;;;;;;;;;;;;;20.40;97.60;99684.72;10393675;28;19924;-71
2023/06/15 23:18:37;;;;;;;;;;;;;;;20.39;97.70;99676.84;10366721;28;19920;-71
2023/06/15 23:23:38;;;;;;;;;;;;;;;20.36;97.93;99675.47;10367633;28;20403;-71
2023/06/15 23:28:39;;;;;;;;;;;;;;;20.26;97.90;99675.31;10367190;28;19922;-71
2023/06/15 23:33:40;;;;;;;;;;;;;;;20.16;98.17;99667.91;10366728;28;19917;-71
2023/06/15 23:38:40;;;;;;;;;;;;;;;20.10;98.60;99670.75;10367215;28;19921;-71
2023/06/15 23:43:41;;;;;;;;;;;;;;;20.12;99.06;99671.34;10366689;28;19928;-71
2023/06/15 23:48:41;;;;;;;;;;;;;;;20.10;99.15;99663.47;10365930;28;19921;-71
2023/06/15 23:53:44;;;;;;;;;;;;;;;20.12;99.82;99661.38;10365948;28;19917;-71
2023/06/15 23:58:45;;;;;;;;;;;;;;;20.12;99.32;99655.16;10367024;28;20292;-71
